Detalhes do Voo

Voltar

 DETALHES DO VÔO

Piloto: GLD098 Wagner C. Aeronave: CARENADO PC12_V1.0 HB-FCL Distância: 210NM
Origem: SBMG Destino: SBCT Duração: 0.80
Validação: Validado Tipo: Regular Matrícula: PR-GPD
ZFW: 2694 Block Fuel/Init FOB 154/0 Combustível em Voo 151
Passageiros: 9 Carga: 983 Alternativo: SBFL
Hora da Decolagem: Velocidade de Cruzeiro: N0200 Nível de Voo: FL200
Regra Visual: IFR ICAO da Aeronave: PC12 Unidade de Peso: Kg
Data: 08/08/2020 Observação: Rede: IVAO
Acidentou?: Não Comentários do Validador: Pontuação do Voo 90.6576

 ROTA

ROTA MNG DCT LON W48
REMARKS RMK/FROM SBMT OPR/GOLD VIRTUAL RMK/PIC GLD098 RMK/WWW.GOLDVIRTUAL.COM.BR PER/A

 PENALIDADES DO VOO

Para entender como cada item é pontuado, consulte as regras de avaliação.

Nenhuma penalidade registrada para este voo.

 ANÁLISE DO POUSO

Vento durante o pouso: 164º/7 kt Proa durante o pouso: 217
V/S do Pouso: -415.23 ft/min IAS do Pouso: 78.45 kt
Força G no pouso: 3.4 G Bank no pouso: 0.1
Pitch no Pouso 2 Flaps no Pouso 40
Nav Lights ON Landing Lights OFF
Beacon Lights ON Strobe Lights ON

 MAPA DO VOO

 PERFIL VERTICAL DO VOO

 EVENTOS PRINCIPAIS DO VOO

DATAEVENTOIASALTITUDE
2020-08-08 20:48:05 SIM ACARS version 1.4.0231758
2020-08-08 20:48:05 BOARDING231758
2020-08-08 20:48:05 TAXI TO THE RWY 231758
2020-08-08 20:48:05 FLAPS EXTENSION 33 % 231758
2020-08-08 20:48:06 STARTING ENGINE 1 231758
2020-08-08 20:48:23 ROLLING FOR TAKE OFF331758
2020-08-08 20:48:36 TAKE OFF961759
2020-08-08 20:48:39 GEAR UP1021789
2020-08-08 20:49:29 FLAPS EXTENSION 0 % 1263127
2020-08-08 20:54:01 LIGHTS ON ABOVE 10000 ft16810503
2020-08-08 20:58:57 CRUISE17520219
2020-08-08 21:26:58 DESCEND17719727
2020-08-08 21:32:42 LIGHTS OFF BELOW 10000 ft1699500
2020-08-08 21:35:39 CRUISE1205207
2020-08-08 21:36:59 DESCEND1884002
2020-08-08 21:37:59 FLAPS EXTENSION 33 % 1463146
2020-08-08 21:37:59 GEAR DOWN1463141
2020-08-08 21:38:06 FLAPS EXTENSION 67 % 1353101
2020-08-08 21:38:13 FLAPS EXTENSION 100 % 1163031
2020-08-08 21:38:29 LANDING WITH LANDING LIGHTS OFF782957
2020-08-08 21:38:29 LANDING782957
2020-08-08 21:39:17 TAXI TO THE GATE202958
2020-08-08 21:40:50 STOPPING ENGINE 1 02958

 DADOS DO ACARS

DATA IAS GS ALTITUDE COMBUSTÍVEL USADO OAT FASE DO VOO
2020-08-08 20:49:04 119 131 2438 3 22 CLIMBING
2020-08-08 20:50:04 160 169 3957 8 13 CLIMBING
2020-08-08 20:51:05 174 186 5728 12 7 CLIMBING
2020-08-08 20:52:05 175 192 7537 16 4 CLIMBING
2020-08-08 20:53:05 172 196 9058 19 3 CLIMBING
2020-08-08 20:54:05 167 198 10589 23 1 CLIMBING
2020-08-08 20:55:05 161 203 12558 27 -1 CLIMBING
2020-08-08 20:56:05 152 208 15550 32 -7 CLIMBING
2020-08-08 20:57:05 143 212 17790 37 -12 CLIMBING
2020-08-08 20:58:05 136 214 19757 40 -17 CLIMBING
2020-08-08 20:59:05 179 276 20218 44 -18 CRUISE
2020-08-08 21:00:05 196 298 20240 47 -18 CRUISE
2020-08-08 21:01:05 203 305 20241 50 -18 CRUISE
2020-08-08 21:02:05 204 306 20241 54 -18 CRUISE
2020-08-08 21:03:05 203 305 20235 57 -18 CRUISE
2020-08-08 21:04:05 203 305 20235 61 -18 CRUISE
2020-08-08 21:05:05 197 296 20235 65 -18 CRUISE
2020-08-08 21:06:05 192 292 20237 70 -19 CRUISE
2020-08-08 21:07:05 192 293 20238 74 -19 CRUISE
2020-08-08 21:08:05 192 293 20238 77 -19 CRUISE
2020-08-08 21:09:05 192 293 20239 80 -19 CRUISE
2020-08-08 21:10:05 192 287 20240 82 -19 CRUISE
2020-08-08 21:11:05 193 282 20240 85 -19 CRUISE
2020-08-08 21:12:05 193 282 20240 88 -19 CRUISE
2020-08-08 21:13:05 193 282 20241 91 -19 CRUISE
2020-08-08 21:14:05 193 282 20241 95 -19 CRUISE
2020-08-08 21:15:05 193 282 20242 99 -19 CRUISE
2020-08-08 21:16:05 193 282 20235 103 -19 CRUISE
2020-08-08 21:17:05 192 281 20235 108 -19 CRUISE
2020-08-08 21:18:05 191 280 20316 112 -19 CRUISE
2020-08-08 21:19:05 192 282 20318 117 -19 CRUISE
2020-08-08 21:20:05 192 282 20316 121 -19 CRUISE
2020-08-08 21:21:05 192 282 20319 126 -19 CRUISE
2020-08-08 21:22:05 192 282 20319 130 -19 CRUISE
2020-08-08 21:23:05 192 283 20319 134 -19 CRUISE
2020-08-08 21:24:05 193 283 20320 138 -19 CRUISE
2020-08-08 21:25:05 192 283 20320 142 -19 CRUISE
2020-08-08 21:26:05 189 277 20319 146 -19 CRUISE
2020-08-08 21:27:05 175 254 19554 148 -17 DESCEND
2020-08-08 21:28:05 167 236 18049 148 -14 DESCEND
2020-08-08 21:29:05 164 225 16297 148 -10 DESCEND
2020-08-08 21:30:05 166 215 14180 148 -5 DESCEND
2020-08-08 21:31:05 166 208 12584 149 -3 DESCEND
2020-08-08 21:32:05 167 204 10802 149 0 DESCEND
2020-08-08 21:33:05 169 198 8699 149 1 DESCEND
2020-08-08 21:34:05 171 194 6717 150 3 DESCEND
2020-08-08 21:35:05 164 182 5232 150 8 DESCEND
2020-08-08 21:36:05 162 180 5228 151 7 CRUISE
2020-08-08 21:37:05 182 191 3917 152 11 DESCEND
2020-08-08 21:38:05 137 136 3106 153 16 DESCEND
2020-08-08 21:39:05 37 31 2957 153 16 LANDED
2020-08-08 21:40:05 0 0 2957 154 16 TAXI TO THE GATE